createdAt,value
2023-03-18T00:00:00.478Z,13.2
2023-03-18T00:01:01.572Z,13.2
2023-03-18T00:02:00.432Z,13.2
2023-03-18T00:03:00.474Z,13.1
2023-03-18T00:04:00.447Z,13.1
2023-03-18T00:05:00.378Z,13.1
2023-03-18T00:06:02.651Z,13.1
2023-03-18T00:07:00.468Z,13.1
2023-03-18T00:08:00.921Z,13.1
2023-03-18T00:09:00.363Z,13.1
2023-03-18T00:10:00.761Z,13.1
2023-03-18T00:11:00.716Z,13.0
2023-03-18T00:12:00.367Z,13.0
2023-03-18T00:13:00.954Z,13.0
2023-03-18T00:14:00.359Z,13.0
2023-03-18T00:15:00.433Z,13.1
2023-03-18T00:16:00.946Z,13.1
2023-03-18T00:17:00.402Z,13.0
2023-03-18T00:18:00.443Z,13.0
2023-03-18T00:19:00.524Z,13.0
2023-03-18T00:20:00.380Z,13.0
2023-03-18T00:21:00.732Z,13.0
2023-03-18T00:22:00.382Z,13.0
2023-03-18T00:23:00.357Z,13.0
2023-03-18T00:24:00.408Z,13.0
2023-03-18T00:25:00.760Z,13.0
2023-03-18T00:26:01.166Z,13.0
2023-03-18T00:27:00.388Z,13.0
2023-03-18T00:28:00.490Z,13.0
2023-03-18T00:29:00.363Z,13.0
2023-03-18T00:30:01.048Z,13.0
2023-03-18T00:31:01.690Z,13.0
2023-03-18T00:32:00.402Z,13.0
2023-03-18T00:33:00.580Z,13.0
2023-03-18T00:34:00.407Z,13.0
2023-03-18T00:35:00.572Z,13.0
2023-03-18T00:36:00.590Z,13.0
2023-03-18T00:37:00.381Z,12.9
2023-03-18T00:38:00.730Z,12.9
2023-03-18T00:39:00.377Z,12.9
2023-03-18T00:40:01.523Z,12.9
2023-03-18T00:41:00.416Z,13.0
2023-03-18T00:42:00.355Z,13.0
2023-03-18T00:43:00.356Z,12.9
2023-03-18T00:44:00.356Z,12.9
2023-03-18T00:45:00.369Z,13.0
2023-03-18T00:46:00.761Z,13.0
2023-03-18T00:47:00.514Z,13.0
2023-03-18T00:48:00.361Z,13.0
2023-03-18T00:49:03.792Z,13.0
2023-03-18T00:50:00.536Z,13.0
2023-03-18T00:51:00.382Z,12.9
2023-03-18T00:52:00.357Z,12.9
2023-03-18T00:53:00.374Z,12.9
2023-03-18T00:54:01.158Z,12.9
2023-03-18T00:55:00.453Z,12.9
2023-03-18T00:56:00.365Z,12.9
2023-03-18T00:57:00.392Z,12.9
2023-03-18T00:58:00.413Z,12.9
2023-03-18T00:59:00.556Z,12.9
2023-03-18T01:00:00.425Z,12.9
2023-03-18T01:01:00.420Z,12.8
2023-03-18T01:02:00.423Z,12.8
2023-03-18T01:03:00.730Z,12.9
2023-03-18T01:04:00.565Z,12.9
2023-03-18T01:05:00.407Z,12.9
2023-03-18T01:06:01.320Z,12.9
2023-03-18T01:07:00.362Z,12.8
2023-03-18T01:08:00.740Z,12.8
2023-03-18T01:09:01.146Z,12.9
2023-03-18T01:10:00.457Z,12.9
2023-03-18T01:11:00.481Z,12.9
2023-03-18T01:12:00.360Z,12.9
2023-03-18T01:13:00.359Z,12.9
2023-03-18T01:14:00.455Z,12.9
2023-03-18T01:15:00.434Z,12.9
2023-03-18T01:16:00.807Z,12.9
2023-03-18T01:17:00.383Z,12.9
2023-03-18T01:18:00.388Z,12.9
2023-03-18T01:19:00.551Z,12.8
2023-03-18T01:20:00.452Z,12.8
2023-03-18T01:21:00.374Z,12.8
2023-03-18T01:22:00.766Z,12.8
2023-03-18T01:23:00.389Z,12.8
2023-03-18T01:24:00.413Z,12.8
2023-03-18T01:25:00.389Z,12.9
2023-03-18T01:26:00.432Z,12.9
2023-03-18T01:27:00.372Z,12.8
2023-03-18T01:28:00.405Z,12.8
2023-03-18T01:29:00.369Z,12.9
2023-03-18T01:30:00.669Z,12.9
2023-03-18T01:31:00.374Z,12.8
2023-03-18T01:32:00.545Z,12.8
2023-03-18T01:33:00.950Z,12.8
2023-03-18T01:34:00.466Z,12.8
2023-03-18T01:35:00.475Z,12.8
2023-03-18T01:36:00.462Z,12.8
2023-03-18T01:37:00.360Z,12.7
2023-03-18T01:39:00.368Z,12.7
2023-03-18T01:40:00.408Z,12.7
2023-03-18T01:41:00.788Z,12.8
2023-03-18T01:42:00.485Z,12.8
2023-03-18T01:43:10.318Z,12.6
2023-03-18T01:44:00.352Z,12.6
2023-03-18T01:45:10.318Z,12.6
2023-03-18T01:46:01.210Z,12.6
2023-03-18T01:47:00.348Z,12.7
2023-03-18T01:48:00.384Z,12.7
2023-03-18T01:49:02.196Z,12.6
2023-03-18T01:50:00.451Z,12.6
2023-03-18T01:51:05.503Z,12.7
2023-03-18T01:52:02.746Z,12.7
2023-03-18T01:53:02.546Z,12.7
2023-03-18T01:54:02.374Z,12.7
2023-03-18T01:55:02.750Z,12.7
2023-03-18T01:56:01.162Z,12.7
2023-03-18T01:57:01.219Z,12.7
2023-03-18T01:58:02.202Z,12.7
2023-03-18T01:59:00.559Z,12.6
2023-03-18T02:00:01.040Z,12.6
2023-03-18T02:01:02.255Z,12.5
2023-03-18T02:02:02.806Z,12.5
2023-03-18T02:03:00.390Z,12.5
2023-03-18T02:04:01.709Z,12.5
2023-03-18T02:05:02.536Z,12.4
2023-03-18T02:06:00.399Z,12.4
2023-03-18T02:07:00.474Z,12.4
2023-03-18T02:08:00.363Z,12.4
2023-03-18T02:09:00.535Z,12.4
2023-03-18T02:10:01.583Z,12.4
2023-03-18T02:11:01.654Z,12.4
2023-03-18T02:12:00.762Z,12.4
2023-03-18T02:13:04.096Z,12.5
2023-03-18T02:14:01.804Z,12.5
2023-03-18T02:15:01.391Z,12.4
2023-03-18T02:16:04.130Z,12.4
2023-03-18T02:17:03.567Z,12.4
2023-03-18T02:18:03.794Z,12.4
2023-03-18T02:19:06.074Z,12.5
2023-03-18T02:20:10.322Z,12.5
2023-03-18T02:21:10.331Z,12.3
2023-03-18T02:22:08.224Z,12.3
2023-03-18T02:23:06.986Z,12.4
2023-03-18T02:24:07.718Z,12.4
2023-03-18T02:25:08.867Z,12.5
2023-03-18T02:26:08.015Z,12.5
2023-03-18T02:27:02.720Z,12.4
2023-03-18T02:28:01.550Z,12.4
2023-03-18T02:29:01.918Z,12.4
2023-03-18T02:30:05.845Z,12.4
2023-03-18T02:31:02.855Z,12.3
2023-03-18T02:32:01.842Z,12.3
2023-03-18T02:33:00.927Z,12.3
2023-03-18T02:34:00.686Z,12.3
2023-03-18T02:35:02.137Z,12.3
2023-03-18T02:36:03.337Z,12.3
2023-03-18T02:37:00.918Z,12.3
2023-03-18T02:38:00.977Z,12.3
2023-03-18T02:39:00.399Z,12.3
2023-03-18T02:40:10.314Z,12.3
2023-03-18T02:41:00.406Z,12.3
2023-03-18T02:42:00.532Z,12.3
2023-03-18T02:43:10.329Z,12.4
2023-03-18T02:44:00.698Z,12.4
2023-03-18T02:45:00.428Z,12.3
2023-03-18T02:46:10.415Z,12.3
2023-03-18T02:47:02.943Z,12.4
2023-03-18T02:48:02.823Z,12.4
2023-03-18T02:49:01.572Z,12.4
2023-03-18T02:50:00.457Z,12.4
2023-03-18T02:51:00.468Z,12.3
2023-03-18T02:52:00.387Z,12.3
2023-03-18T02:53:01.515Z,12.3
2023-03-18T02:54:04.211Z,12.3
2023-03-18T02:55:00.387Z,12.4
2023-03-18T02:56:00.636Z,12.4
2023-03-18T02:57:00.416Z,12.3
2023-03-18T02:58:00.390Z,12.3
2023-03-18T02:59:00.360Z,12.3
2023-03-18T03:00:00.367Z,12.3
2023-03-18T03:01:00.660Z,12.3
2023-03-18T03:02:00.383Z,12.3
2023-03-18T03:03:00.687Z,12.2
2023-03-18T03:04:00.678Z,12.2
2023-03-18T03:05:00.402Z,12.2
2023-03-18T03:06:01.017Z,12.2
2023-03-18T03:07:00.370Z,12.1
2023-03-18T03:08:00.694Z,12.1
2023-03-18T03:09:00.670Z,12.1
2023-03-18T03:10:00.478Z,12.1
2023-03-18T03:11:02.097Z,12.1
2023-03-18T03:12:00.732Z,12.1
2023-03-18T03:13:00.888Z,12.2
2023-03-18T03:14:00.505Z,12.2
2023-03-18T03:15:00.394Z,12.2
2023-03-18T03:16:00.504Z,12.2
2023-03-18T03:17:00.386Z,12.1
2023-03-18T03:18:00.385Z,12.1
2023-03-18T03:19:00.758Z,12.1
2023-03-18T03:20:00.781Z,12.1
2023-03-18T03:21:00.556Z,12.1
2023-03-18T03:22:00.394Z,12.1
2023-03-18T03:23:01.004Z,12.1
2023-03-18T03:24:02.239Z,12.1
2023-03-18T03:25:00.440Z,12.0
2023-03-18T03:26:00.466Z,12.0
2023-03-18T03:27:00.381Z,12.0
2023-03-18T03:28:00.549Z,12.0
2023-03-18T03:29:00.699Z,12.1
2023-03-18T03:30:00.408Z,12.1
2023-03-18T03:31:00.889Z,12.0
2023-03-18T03:32:00.403Z,12.0
2023-03-18T03:33:00.549Z,12.0
2023-03-18T03:34:00.389Z,12.0
2023-03-18T03:35:00.645Z,12.0
2023-03-18T03:36:00.396Z,12.0
2023-03-18T03:37:00.380Z,12.1
2023-03-18T03:38:00.482Z,12.1
2023-03-18T03:39:00.409Z,12.0
2023-03-18T03:40:00.409Z,12.0
2023-03-18T03:41:00.478Z,12.0
2023-03-18T03:42:00.361Z,12.0
2023-03-18T03:43:00.355Z,12.0
2023-03-18T03:44:00.362Z,12.0
2023-03-18T03:45:00.484Z,11.9
2023-03-18T03:46:00.398Z,11.9
2023-03-18T03:47:00.384Z,12.0
2023-03-18T03:48:00.509Z,12.0
2023-03-18T03:49:00.447Z,12.0
2023-03-18T03:50:00.853Z,12.0
2023-03-18T03:51:00.766Z,11.9
2023-03-18T03:52:00.393Z,11.9
2023-03-18T03:53:00.409Z,11.9
2023-03-18T03:54:00.355Z,11.9
2023-03-18T03:55:00.404Z,11.9
2023-03-18T03:56:00.386Z,11.9
2023-03-18T03:57:00.356Z,11.9
2023-03-18T03:58:00.824Z,11.9
2023-03-18T03:59:00.375Z,11.9
2023-03-18T04:00:00.720Z,11.9
2023-03-18T04:01:00.391Z,11.9
2023-03-18T04:02:00.357Z,11.9
2023-03-18T04:03:00.467Z,11.9
2023-03-18T04:04:00.844Z,11.9
2023-03-18T04:05:00.396Z,12.0
2023-03-18T04:06:00.392Z,12.0
2023-03-18T04:07:00.875Z,11.9
2023-03-18T04:08:00.363Z,11.9
2023-03-18T04:09:00.361Z,12.0
2023-03-18T04:10:00.453Z,12.0
2023-03-18T04:11:00.362Z,12.0
2023-03-18T04:12:00.775Z,12.0
2023-03-18T04:13:00.377Z,12.0
2023-03-18T04:14:00.387Z,12.0
2023-03-18T04:15:00.535Z,11.9
2023-03-18T04:16:00.436Z,11.9
2023-03-18T04:17:00.409Z,11.9
2023-03-18T04:18:00.372Z,11.9
2023-03-18T04:19:00.399Z,12.0
2023-03-18T04:20:00.915Z,12.0
2023-03-18T04:21:00.393Z,11.9
2023-03-18T04:22:00.366Z,11.9
2023-03-18T04:23:00.953Z,11.9
2023-03-18T04:24:00.358Z,11.9
2023-03-18T04:25:00.529Z,11.9
2023-03-18T04:26:00.390Z,11.9
2023-03-18T04:27:00.377Z,12.0
2023-03-18T04:28:00.396Z,12.0
2023-03-18T04:29:00.413Z,11.9
2023-03-18T04:30:00.392Z,11.9
2023-03-18T04:31:00.418Z,11.9
2023-03-18T04:32:00.397Z,11.9
2023-03-18T04:33:00.489Z,11.8
2023-03-18T04:34:00.406Z,11.8
2023-03-18T04:35:00.376Z,11.8
2023-03-18T04:36:00.427Z,11.8
2023-03-18T04:37:00.419Z,11.8
2023-03-18T04:38:00.450Z,11.8
2023-03-18T04:39:00.376Z,11.8
2023-03-18T04:40:00.387Z,11.8
2023-03-18T04:41:00.353Z,11.8
2023-03-18T04:42:00.438Z,11.8
2023-03-18T04:43:00.757Z,11.7
2023-03-18T04:44:00.389Z,11.7
2023-03-18T04:45:00.394Z,11.8
2023-03-18T04:46:00.392Z,11.8
2023-03-18T04:47:00.416Z,11.8
2023-03-18T04:48:00.512Z,11.8
2023-03-18T04:49:00.417Z,11.8
2023-03-18T04:50:00.406Z,11.8
2023-03-18T04:51:00.386Z,11.9
2023-03-18T04:52:00.407Z,11.9
2023-03-18T04:53:00.366Z,11.8
2023-03-18T04:54:00.359Z,11.8
2023-03-18T04:55:00.388Z,11.8
2023-03-18T04:56:00.719Z,11.8
2023-03-18T04:57:00.360Z,11.9
2023-03-18T04:58:00.392Z,11.9
2023-03-18T04:59:00.363Z,11.8
2023-03-18T05:00:00.477Z,11.8
2023-03-18T05:01:00.522Z,11.9
2023-03-18T05:02:00.353Z,11.9
2023-03-18T05:03:00.450Z,11.8
2023-03-18T05:04:00.457Z,11.8
2023-03-18T05:05:00.413Z,11.8
2023-03-18T05:06:00.407Z,11.8
2023-03-18T05:07:00.410Z,11.8
2023-03-18T05:08:00.415Z,11.8
2023-03-18T05:09:00.394Z,11.8
2023-03-18T05:10:00.398Z,11.8
2023-03-18T05:11:00.386Z,11.8
2023-03-18T05:12:00.392Z,11.8
2023-03-18T05:13:00.391Z,11.6
2023-03-18T05:14:00.370Z,11.6
2023-03-18T05:15:00.359Z,11.8
2023-03-18T05:16:00.374Z,11.8
2023-03-18T05:17:00.802Z,11.8
2023-03-18T05:18:00.487Z,11.8
2023-03-18T05:19:00.355Z,11.8
2023-03-18T05:20:00.372Z,11.8
2023-03-18T05:21:00.460Z,11.8
2023-03-18T05:22:00.353Z,11.8
2023-03-18T05:23:00.397Z,11.7
2023-03-18T05:24:00.369Z,11.7
2023-03-18T05:25:00.668Z,11.8
2023-03-18T05:26:00.468Z,11.8
2023-03-18T05:27:00.442Z,11.7
2023-03-18T05:28:00.479Z,11.7
2023-03-18T05:29:00.390Z,11.7
2023-03-18T05:30:00.397Z,11.7
2023-03-18T05:31:00.620Z,11.7
2023-03-18T05:32:00.456Z,11.7
2023-03-18T05:33:00.490Z,11.8
2023-03-18T05:34:00.363Z,11.8
2023-03-18T05:35:00.376Z,11.9
2023-03-18T05:36:00.446Z,11.9
2023-03-18T05:37:00.350Z,11.6
2023-03-18T05:38:00.513Z,11.6
2023-03-18T05:39:00.403Z,11.7
2023-03-18T05:40:00.387Z,11.7
2023-03-18T05:41:00.369Z,11.6
2023-03-18T05:42:00.389Z,11.6
2023-03-18T05:43:00.369Z,11.8
2023-03-18T05:44:00.353Z,11.8
2023-03-18T05:45:00.614Z,11.7
2023-03-18T05:46:00.421Z,11.7
2023-03-18T05:47:00.675Z,11.7
2023-03-18T05:48:00.371Z,11.7
2023-03-18T05:49:00.365Z,11.7
2023-03-18T05:50:00.344Z,11.7
2023-03-18T05:51:00.356Z,11.7
2023-03-18T05:52:00.797Z,11.7
2023-03-18T05:53:01.293Z,11.7
2023-03-18T05:54:00.347Z,11.7
2023-03-18T05:55:00.366Z,11.7
2023-03-18T05:56:00.350Z,11.7
2023-03-18T05:57:00.426Z,11.7
2023-03-18T05:58:00.664Z,11.7
2023-03-18T05:59:00.474Z,11.6
2023-03-18T06:00:00.500Z,11.6
2023-03-18T06:01:00.433Z,11.6
2023-03-18T06:02:00.684Z,11.6
2023-03-18T06:03:01.002Z,11.6
2023-03-18T06:04:00.372Z,11.6
2023-03-18T06:05:00.431Z,11.6
2023-03-18T06:06:00.508Z,11.6
2023-03-18T06:07:00.360Z,11.5
2023-03-18T06:08:01.359Z,11.5
2023-03-18T06:09:00.364Z,11.6
2023-03-18T06:10:00.400Z,11.6
2023-03-18T06:11:00.413Z,11.5
2023-03-18T06:12:00.362Z,11.5
2023-03-18T06:13:00.388Z,11.5
2023-03-18T06:14:00.377Z,11.5
2023-03-18T06:15:00.350Z,11.6
2023-03-18T06:16:00.393Z,11.6
2023-03-18T06:17:00.494Z,11.6
2023-03-18T06:18:00.366Z,11.6
2023-03-18T06:19:00.506Z,11.6
2023-03-18T06:20:01.832Z,11.6
2023-03-18T06:21:00.380Z,11.7
2023-03-18T06:22:00.382Z,11.7
2023-03-18T06:23:00.381Z,11.6
2023-03-18T06:24:00.749Z,11.6
2023-03-18T06:25:00.456Z,11.6
2023-03-18T06:26:00.798Z,11.6
2023-03-18T06:27:00.361Z,11.6
2023-03-18T06:28:00.363Z,11.6
2023-03-18T06:29:00.366Z,11.7
2023-03-18T06:30:00.409Z,11.7
2023-03-18T06:31:00.383Z,11.7
2023-03-18T06:32:00.377Z,11.7
2023-03-18T06:33:00.398Z,11.5
2023-03-18T06:34:01.482Z,11.5
2023-03-18T06:35:00.359Z,11.6
2023-03-18T06:36:00.441Z,11.6
2023-03-18T06:37:00.413Z,11.5
2023-03-18T06:38:00.352Z,11.5
2023-03-18T06:39:00.377Z,11.5
2023-03-18T06:40:00.415Z,11.5
2023-03-18T06:41:00.366Z,11.6
2023-03-18T06:42:00.564Z,11.6
2023-03-18T06:43:00.363Z,11.5
2023-03-18T06:44:00.368Z,11.5
2023-03-18T06:45:00.388Z,11.4
2023-03-18T06:46:00.400Z,11.4
2023-03-18T06:47:00.417Z,11.4
2023-03-18T06:48:00.434Z,11.4
2023-03-18T06:49:00.359Z,11.4
2023-03-18T06:50:00.417Z,11.4
2023-03-18T06:51:00.356Z,11.5
2023-03-18T06:52:00.382Z,11.5
2023-03-18T06:53:00.392Z,11.5
2023-03-18T06:54:00.382Z,11.5
2023-03-18T06:55:00.450Z,11.5
2023-03-18T06:56:00.392Z,11.5
2023-03-18T06:57:00.405Z,11.4
2023-03-18T06:58:00.401Z,11.4
2023-03-18T06:59:00.358Z,11.4
2023-03-18T07:00:00.752Z,11.4
2023-03-18T07:01:00.558Z,11.5
2023-03-18T07:02:00.460Z,11.5
2023-03-18T07:03:00.529Z,11.5
2023-03-18T07:04:01.028Z,11.5
2023-03-18T07:05:00.360Z,11.5
2023-03-18T07:06:00.930Z,11.5
2023-03-18T07:07:00.416Z,11.5
2023-03-18T07:08:00.359Z,11.5
2023-03-18T07:09:00.416Z,11.5
2023-03-18T07:10:00.419Z,11.5
2023-03-18T07:11:00.422Z,11.5
2023-03-18T07:12:00.356Z,11.5
2023-03-18T07:13:00.397Z,11.5
2023-03-18T07:14:00.396Z,11.5
2023-03-18T07:15:01.043Z,11.6
2023-03-18T07:16:00.504Z,11.6
2023-03-18T07:17:00.549Z,11.6
2023-03-18T07:18:00.414Z,11.6
2023-03-18T07:19:00.381Z,11.5
2023-03-18T07:20:00.392Z,11.5
2023-03-18T07:21:00.390Z,11.6
2023-03-18T07:22:00.389Z,11.6
2023-03-18T07:23:00.384Z,11.6
2023-03-18T07:24:00.359Z,11.6
2023-03-18T07:25:00.350Z,11.6
2023-03-18T07:26:00.497Z,11.6
2023-03-18T07:27:00.416Z,11.7
2023-03-18T07:28:00.414Z,11.7
2023-03-18T07:29:00.387Z,11.7
2023-03-18T07:30:00.856Z,11.7
2023-03-18T07:31:00.411Z,11.7
2023-03-18T07:32:00.416Z,11.7
2023-03-18T07:33:00.450Z,11.7
2023-03-18T07:34:00.370Z,11.7
2023-03-18T07:35:00.393Z,11.7
2023-03-18T07:36:01.021Z,11.7
2023-03-18T07:37:00.367Z,11.7
2023-03-18T07:38:00.355Z,11.7
2023-03-18T07:39:00.376Z,11.8
2023-03-18T07:40:00.374Z,11.8
2023-03-18T07:41:00.400Z,11.8
2023-03-18T07:42:00.399Z,11.8
2023-03-18T07:43:00.389Z,11.8
2023-03-18T07:44:00.373Z,11.8
2023-03-18T07:45:00.400Z,11.8
2023-03-18T07:46:00.373Z,11.8
2023-03-18T07:47:00.396Z,11.9
2023-03-18T07:48:00.388Z,11.9
2023-03-18T07:49:00.382Z,11.9
2023-03-18T07:50:00.559Z,11.9
2023-03-18T07:51:00.493Z,11.8
2023-03-18T07:52:00.424Z,11.8
2023-03-18T07:53:00.388Z,11.9
2023-03-18T07:54:00.378Z,11.9
2023-03-18T07:55:00.531Z,12.0
2023-03-18T07:56:00.371Z,12.0
2023-03-18T07:57:00.399Z,12.1
2023-03-18T07:58:00.552Z,12.1
2023-03-18T07:59:00.378Z,12.1
2023-03-18T08:00:00.376Z,12.1
2023-03-18T08:01:00.667Z,12.2
2023-03-18T08:02:00.382Z,12.2
2023-03-18T08:03:00.492Z,12.3
2023-03-18T08:04:00.472Z,12.3
2023-03-18T08:05:00.744Z,12.3
2023-03-18T08:06:00.470Z,12.3
2023-03-18T08:07:00.368Z,12.4
2023-03-18T08:08:00.351Z,12.4
2023-03-18T08:09:00.526Z,12.3
2023-03-18T08:10:00.464Z,12.3
2023-03-18T08:11:00.607Z,12.3
2023-03-18T08:12:00.348Z,12.3
2023-03-18T08:13:00.361Z,12.4
2023-03-18T08:14:00.360Z,12.4
2023-03-18T08:15:00.357Z,12.4
2023-03-18T08:16:00.501Z,12.4
2023-03-18T08:17:00.756Z,12.4
2023-03-18T08:18:00.388Z,12.4
2023-03-18T08:19:00.400Z,12.5
2023-03-18T08:20:00.429Z,12.5
2023-03-18T08:21:00.384Z,12.4
2023-03-18T08:22:00.528Z,12.4
2023-03-18T08:23:00.384Z,12.4
2023-03-18T08:24:00.377Z,12.4
2023-03-18T08:25:00.377Z,12.6
2023-03-18T08:26:00.388Z,12.6
2023-03-18T08:27:00.393Z,12.7
2023-03-18T08:28:00.357Z,12.7
2023-03-18T08:29:00.454Z,12.7
2023-03-18T08:30:03.402Z,12.7
2023-03-18T08:31:00.377Z,12.7
2023-03-18T08:32:00.462Z,12.7
2023-03-18T08:33:00.790Z,12.8
2023-03-18T08:34:00.389Z,12.8
2023-03-18T08:35:00.419Z,12.8
2023-03-18T08:36:00.406Z,12.8
2023-03-18T08:37:00.362Z,12.9
2023-03-18T08:38:00.547Z,12.9
2023-03-18T08:39:00.364Z,12.9
2023-03-18T08:40:00.415Z,12.9
2023-03-18T08:41:00.387Z,13.0
2023-03-18T08:42:02.600Z,13.0
2023-03-18T08:43:00.361Z,13.0
2023-03-18T08:44:00.908Z,13.0
2023-03-18T08:45:00.685Z,13.0
2023-03-18T08:46:00.487Z,13.0
2023-03-18T08:47:00.430Z,13.1
2023-03-18T08:48:00.419Z,13.1
2023-03-18T08:49:00.402Z,13.1
2023-03-18T08:50:00.401Z,13.1
2023-03-18T08:51:04.371Z,13.1
2023-03-18T08:52:00.362Z,13.1
2023-03-18T08:53:00.657Z,13.2
2023-03-18T08:54:00.431Z,13.2
2023-03-18T08:55:00.388Z,13.3
2023-03-18T08:56:02.804Z,13.3
2023-03-18T08:57:00.395Z,13.4
2023-03-18T08:58:00.732Z,13.4
2023-03-18T08:59:00.398Z,13.4
2023-03-18T09:00:00.423Z,13.4
2023-03-18T09:01:01.157Z,13.5
2023-03-18T09:02:00.381Z,13.5
2023-03-18T09:03:00.388Z,13.6
2023-03-18T09:04:00.388Z,13.6
2023-03-18T09:05:00.397Z,13.6
2023-03-18T09:06:00.709Z,13.6
2023-03-18T09:07:00.387Z,13.6
2023-03-18T09:08:00.390Z,13.6
2023-03-18T09:09:00.360Z,13.6
2023-03-18T09:10:00.407Z,13.6
2023-03-18T09:11:00.416Z,13.7
2023-03-18T09:12:00.377Z,13.7
2023-03-18T09:13:00.378Z,13.7
2023-03-18T09:14:00.384Z,13.7
2023-03-18T09:15:00.422Z,13.7
2023-03-18T09:16:00.789Z,13.7
2023-03-18T09:17:00.408Z,13.8
2023-03-18T09:18:12.024Z,13.8
2023-03-18T09:19:00.409Z,13.9
2023-03-18T09:20:00.404Z,13.9
2023-03-18T09:21:00.368Z,13.9
2023-03-18T09:22:00.368Z,13.9
2023-03-18T09:23:00.420Z,14.0
2023-03-18T09:24:00.360Z,14.0
2023-03-18T09:25:00.614Z,13.9
2023-03-18T09:26:00.405Z,13.9
2023-03-18T09:27:00.355Z,14.0
2023-03-18T09:28:00.871Z,14.0
2023-03-18T09:29:00.375Z,14.1
2023-03-18T09:30:00.478Z,14.1
2023-03-18T09:31:00.376Z,14.1
2023-03-18T09:32:00.381Z,14.1
2023-03-18T09:33:00.614Z,14.3
2023-03-18T09:34:00.378Z,14.3
2023-03-18T09:35:00.386Z,14.3
2023-03-18T09:36:00.432Z,14.3
2023-03-18T09:37:00.357Z,14.2
2023-03-18T09:38:00.403Z,14.2
2023-03-18T09:39:00.350Z,14.3
2023-03-18T09:40:00.404Z,14.3
2023-03-18T09:41:05.713Z,14.3
2023-03-18T09:42:10.292Z,14.3
2023-03-18T09:43:10.318Z,14.3
2023-03-18T09:44:10.322Z,14.3
2023-03-18T09:45:03.175Z,14.4
2023-03-18T09:46:10.390Z,14.4
2023-03-18T09:47:10.555Z,14.4
2023-03-18T09:48:10.297Z,14.4
2023-03-18T09:49:10.291Z,14.5
2023-03-18T09:50:08.408Z,14.5
2023-03-18T09:51:03.644Z,14.6
2023-03-18T09:52:01.374Z,14.6
2023-03-18T09:53:10.311Z,14.9
2023-03-18T09:54:03.203Z,14.9
2023-03-18T09:55:00.336Z,14.9
2023-03-18T09:56:01.624Z,14.9
2023-03-18T09:57:01.570Z,15.0
2023-03-18T09:58:01.577Z,15.0
2023-03-18T09:59:01.611Z,15.0
2023-03-18T10:00:01.374Z,15.0
2023-03-18T10:01:02.381Z,15.0
2023-03-18T10:02:00.914Z,15.0
2023-03-18T10:03:06.259Z,15.1
2023-03-18T10:04:06.018Z,15.1
2023-03-18T10:05:02.961Z,15.0
2023-03-18T10:06:04.199Z,15.0
2023-03-18T10:07:05.337Z,15.2
2023-03-18T10:08:05.469Z,15.2
2023-03-18T10:09:07.090Z,15.4
2023-03-18T10:10:04.681Z,15.4
2023-03-18T10:11:02.936Z,15.4
2023-03-18T10:12:06.291Z,15.4
2023-03-18T10:13:09.144Z,15.4
2023-03-18T10:14:10.291Z,15.4
2023-03-18T10:15:03.658Z,15.5
2023-03-18T10:16:02.969Z,15.5
2023-03-18T10:17:00.359Z,15.7
2023-03-18T10:18:00.361Z,15.7
2023-03-18T10:19:00.386Z,15.7
2023-03-18T10:20:01.723Z,15.7
2023-03-18T10:21:10.289Z,15.8
2023-03-18T10:22:03.642Z,15.8
2023-03-18T10:23:04.524Z,15.8
2023-03-18T10:24:01.393Z,15.8
2023-03-18T10:25:10.286Z,15.9
2023-03-18T10:26:03.898Z,15.9
2023-03-18T10:27:10.294Z,15.9
2023-03-18T10:28:10.292Z,15.9
2023-03-18T10:29:06.096Z,15.9
2023-03-18T10:30:01.380Z,15.9
2023-03-18T10:31:03.678Z,16.0
2023-03-18T10:32:01.398Z,16.0
2023-03-18T10:33:05.069Z,16.1
2023-03-18T10:34:03.260Z,16.1
2023-03-18T10:35:06.806Z,16.1
2023-03-18T10:36:10.384Z,16.1
2023-03-18T10:37:05.439Z,16.1
2023-03-18T10:38:02.714Z,16.1
2023-03-18T10:39:00.642Z,16.2
2023-03-18T10:40:01.284Z,16.2
2023-03-18T10:41:00.486Z,16.2
2023-03-18T10:42:09.666Z,16.2
2023-03-18T10:43:01.714Z,16.2
2023-03-18T10:44:05.290Z,16.2
2023-03-18T10:45:06.269Z,16.4
2023-03-18T10:46:01.371Z,16.4
2023-03-18T10:47:03.317Z,16.2
2023-03-18T10:48:05.905Z,16.2
2023-03-18T10:49:10.293Z,16.2
2023-03-18T10:50:00.348Z,16.2
2023-03-18T10:51:10.404Z,16.2
2023-03-18T10:52:10.325Z,16.2
2023-03-18T10:53:06.184Z,16.3
2023-03-18T10:54:08.386Z,16.3
2023-03-18T10:55:00.392Z,16.4
2023-03-18T10:56:05.253Z,16.4
2023-03-18T10:57:00.358Z,16.4
2023-03-18T10:58:00.804Z,16.4
2023-03-18T10:59:00.426Z,16.4
2023-03-18T11:00:00.371Z,16.4
2023-03-18T11:01:00.408Z,16.4
2023-03-18T11:02:02.512Z,16.4
2023-03-18T11:03:02.352Z,16.4
2023-03-18T11:04:02.534Z,16.4
2023-03-18T11:05:10.295Z,16.5
2023-03-18T11:06:03.104Z,16.5
2023-03-18T11:07:01.455Z,16.6
2023-03-18T11:08:02.044Z,16.6
2023-03-18T11:09:04.366Z,16.5
2023-03-18T11:10:10.328Z,16.5
2023-03-18T11:11:10.321Z,16.5
2023-03-18T11:12:02.871Z,16.5
2023-03-18T11:13:00.811Z,16.6
2023-03-18T11:14:01.851Z,16.6
2023-03-18T11:15:00.385Z,16.6
2023-03-18T11:16:00.437Z,16.6
2023-03-18T11:17:02.028Z,16.4
2023-03-18T11:18:00.947Z,16.4
2023-03-18T11:19:05.828Z,16.5
2023-03-18T11:20:04.167Z,16.5
2023-03-18T11:21:00.488Z,16.5
2023-03-18T11:22:04.263Z,16.5
2023-03-18T11:23:03.871Z,16.7
2023-03-18T11:24:00.389Z,16.7
2023-03-18T11:25:00.367Z,16.8
2023-03-18T11:26:01.056Z,16.8
2023-03-18T11:27:00.766Z,16.8
2023-03-18T11:28:02.957Z,16.8
2023-03-18T11:29:10.296Z,16.8
2023-03-18T11:30:03.439Z,16.8
2023-03-18T11:31:04.088Z,16.8
2023-03-18T11:32:00.786Z,16.8
2023-03-18T11:33:10.546Z,16.8
2023-03-18T11:34:06.953Z,16.8
2023-03-18T11:35:01.409Z,16.9
2023-03-18T11:36:05.044Z,16.9
2023-03-18T11:37:02.718Z,16.9
2023-03-18T11:38:01.118Z,16.9
2023-03-18T11:39:01.806Z,16.8
2023-03-18T11:40:10.291Z,16.8
2023-03-18T11:41:10.289Z,16.8
2023-03-18T11:42:00.351Z,16.8
2023-03-18T11:43:01.570Z,16.8
2023-03-18T11:44:01.780Z,16.8
2023-03-18T11:45:01.624Z,16.8
2023-03-18T11:46:03.111Z,16.8
2023-03-18T11:47:04.111Z,16.8
2023-03-18T11:48:01.545Z,16.8
2023-03-18T11:49:00.574Z,16.7
2023-03-18T11:50:02.553Z,16.7
2023-03-18T11:51:00.363Z,16.7
2023-03-18T11:52:10.298Z,16.7
2023-03-18T11:53:03.616Z,16.7
2023-03-18T11:54:06.108Z,16.7
2023-03-18T11:55:01.593Z,16.7
2023-03-18T11:56:06.760Z,16.7
2023-03-18T11:57:07.079Z,16.8
2023-03-18T11:58:03.588Z,16.8
2023-03-18T11:59:10.289Z,16.8
2023-03-18T12:00:10.290Z,16.8
2023-03-18T12:01:01.408Z,16.8
2023-03-18T12:02:10.368Z,16.8
2023-03-18T12:03:10.318Z,16.7
2023-03-18T12:04:07.816Z,16.7
2023-03-18T12:05:10.306Z,16.7
2023-03-18T12:06:04.412Z,16.7
2023-03-18T12:07:10.310Z,16.7
2023-03-18T12:08:03.625Z,16.7
2023-03-18T12:09:05.103Z,16.4
2023-03-18T12:10:05.566Z,16.4
2023-03-18T12:11:03.627Z,16.5
2023-03-18T12:12:10.289Z,16.5
2023-03-18T12:13:00.365Z,16.7
2023-03-18T12:14:04.337Z,16.7
2023-03-18T12:15:00.371Z,16.6
2023-03-18T12:16:06.082Z,16.6
2023-03-18T12:17:10.310Z,16.6
2023-03-18T12:18:09.247Z,16.6
2023-03-18T12:19:10.325Z,16.7
2023-03-18T12:20:10.295Z,16.7
2023-03-18T12:21:06.508Z,16.6
2023-03-18T12:22:05.939Z,16.6
2023-03-18T12:23:02.105Z,16.5
2023-03-18T12:24:10.291Z,16.5
2023-03-18T12:25:10.320Z,16.6
2023-03-18T12:26:04.179Z,16.6
2023-03-18T12:27:08.488Z,16.5
2023-03-18T12:28:03.681Z,16.5
2023-03-18T12:29:10.293Z,16.4
2023-03-18T12:30:01.377Z,16.4
2023-03-18T12:31:05.307Z,16.4
2023-03-18T12:32:05.951Z,16.4
2023-03-18T12:33:06.549Z,16.4
2023-03-18T12:34:01.847Z,16.4
2023-03-18T12:35:03.633Z,16.6
2023-03-18T12:36:01.457Z,16.6
2023-03-18T12:37:03.665Z,16.6
2023-03-18T12:38:10.304Z,16.6
2023-03-18T12:39:10.295Z,16.4
2023-03-18T12:40:10.292Z,16.4
2023-03-18T12:41:10.316Z,16.4
2023-03-18T12:42:00.371Z,16.4
2023-03-18T12:43:10.324Z,16.3
2023-03-18T12:44:10.338Z,16.3
2023-03-18T12:45:05.347Z,16.3
2023-03-18T12:46:09.537Z,16.3
2023-03-18T12:47:05.242Z,16.3
2023-03-18T12:48:03.452Z,16.3
2023-03-18T12:49:00.347Z,16.3
2023-03-18T12:50:04.747Z,16.3
2023-03-18T12:51:05.032Z,16.3
2023-03-18T12:52:00.371Z,16.3
2023-03-18T12:53:02.417Z,16.4
2023-03-18T12:54:07.819Z,16.4
2023-03-18T12:55:03.333Z,16.5
2023-03-18T12:56:04.050Z,16.5
2023-03-18T12:57:02.543Z,16.5
2023-03-18T12:58:04.709Z,16.5
2023-03-18T12:59:06.432Z,16.3
2023-03-18T13:00:04.878Z,16.3
2023-03-18T13:01:05.665Z,16.3
2023-03-18T13:02:10.391Z,16.3
2023-03-18T13:03:02.785Z,16.4
2023-03-18T13:04:02.920Z,16.4
2023-03-18T13:05:03.337Z,16.6
2023-03-18T13:06:04.079Z,16.6
2023-03-18T13:07:10.296Z,16.5
2023-03-18T13:08:10.292Z,16.5
2023-03-18T13:09:04.503Z,16.5
2023-03-18T13:10:04.713Z,16.5
2023-03-18T13:11:12.181Z,16.5
2023-03-18T13:12:03.704Z,16.5
2023-03-18T13:13:02.110Z,16.5
2023-03-18T13:14:10.306Z,16.5
2023-03-18T13:15:00.348Z,16.5
2023-03-18T13:16:00.944Z,16.5
2023-03-18T13:17:01.688Z,16.6
2023-03-18T13:18:10.298Z,16.6
2023-03-18T13:19:01.681Z,16.5